createdAt,value
2017-05-28T00:00:23.077Z,1012.76
2017-05-28T00:01:32.995Z,1012.8
2017-05-28T00:02:42.611Z,1012.78
2017-05-28T00:03:52.538Z,1012.81
2017-05-28T00:05:02.471Z,1012.82
2017-05-28T00:06:12.471Z,1012.83
2017-05-28T00:07:22.387Z,1012.89
2017-05-28T00:08:32.311Z,1012.88
2017-05-28T00:09:41.677Z,1012.9
2017-05-28T00:10:51.589Z,1012.89
2017-05-28T00:12:01.798Z,1012.91
2017-05-28T00:13:11.405Z,1012.91
2017-05-28T00:14:21.020Z,1012.87
2017-05-28T00:15:31.251Z,1012.95
2017-05-28T00:16:41.483Z,1012.94
2017-05-28T00:17:51.557Z,1012.93
2017-05-28T00:19:01.769Z,1012.97
2017-05-28T00:20:12.007Z,1013.02
2017-05-28T00:21:21.922Z,1012.96
2017-05-28T00:22:31.833Z,1013.04
2017-05-28T00:23:41.752Z,1013.02
2017-05-28T00:24:51.666Z,1013
2017-05-28T00:26:01.584Z,1013.01
2017-05-28T00:27:10.871Z,1013.03
2017-05-28T00:28:21.088Z,1013.01
2017-05-28T00:29:31.403Z,1013.03
2017-05-28T00:30:41.323Z,1013.07
2017-05-28T00:31:51.234Z,1013.15
2017-05-28T00:33:01.146Z,1013.15
2017-05-28T00:34:11.359Z,1013.15
2017-05-28T00:35:20.805Z,1013.21
2017-05-28T00:36:30.396Z,1013.19
2017-05-28T00:37:40.018Z,1013.2
2017-05-28T00:38:49.327Z,1013.24
2017-05-28T00:39:58.942Z,1013.26
2017-05-28T00:41:08.243Z,1013.27
2017-05-28T00:42:17.545Z,1013.3
2017-05-28T00:43:27.147Z,1013.29
2017-05-28T00:44:37.374Z,1013.28
2017-05-28T00:45:47.281Z,1013.23
2017-05-28T00:46:57.046Z,1013.32
2017-05-28T00:48:07.253Z,1013.24
2017-05-28T00:49:17.479Z,1013.24
2017-05-28T00:50:27.397Z,1013.24
2017-05-28T00:51:37.311Z,1013.18
2017-05-28T00:52:47.318Z,1013.25
2017-05-28T00:53:57.232Z,1013.25
2017-05-28T00:55:06.846Z,1013.28
2017-05-28T00:56:16.764Z,1013.31
2017-05-28T00:57:26.682Z,1013.3
2017-05-28T00:58:36.925Z,1013.35
2017-05-28T00:59:47.142Z,1013.38
2017-05-28T01:00:57.049Z,1013.37
2017-05-28T01:02:06.342Z,1013.38
2017-05-28T01:03:16.252Z,1013.37
2017-05-28T01:04:26.018Z,1013.34
2017-05-28T01:05:36.266Z,1013.4
2017-05-28T01:06:45.878Z,1013.35
2017-05-28T01:07:55.788Z,1013.38
2017-05-28T01:09:05.692Z,1013.33
2017-05-28T01:10:16.062Z,1013.35
2017-05-28T01:11:26.276Z,1013.37
2017-05-28T01:12:35.881Z,1013.36
2017-05-28T01:13:45.474Z,1013.3
2017-05-28T01:14:55.085Z,1013.32
2017-05-28T01:16:05.151Z,1013.28
2017-05-28T01:17:15.061Z,1013.27
2017-05-28T01:18:24.354Z,1013.27
2017-05-28T01:19:34.270Z,1013.27
2017-05-28T01:20:43.570Z,1013.24
2017-05-28T01:21:53.946Z,1013.25
2017-05-28T01:23:03.610Z,1013.18
2017-05-28T01:24:13.834Z,1013.16
2017-05-28T01:25:23.437Z,1013.18
2017-05-28T01:26:33.353Z,1013.23
2017-05-28T01:27:43.068Z,1013.3
2017-05-28T01:28:52.679Z,1013.28
2017-05-28T01:30:02.884Z,1013.32
2017-05-28T01:31:12.817Z,1013.29
2017-05-28T01:32:22.733Z,1013.29
2017-05-28T01:33:32.796Z,1013.27
2017-05-28T01:34:42.734Z,1013.24
2017-05-28T01:35:52.970Z,1013.25
2017-05-28T01:37:02.874Z,1013.28
2017-05-28T01:38:12.790Z,1013.3
2017-05-28T01:39:22.395Z,1013.29
2017-05-28T01:40:32.307Z,1013.27
2017-05-28T01:41:40.993Z,1013.24
2017-05-28T01:42:50.307Z,1013.26
2017-05-28T01:44:00.532Z,1013.29
2017-05-28T01:45:09.924Z,1013.32
2017-05-28T01:46:19.845Z,1013.35
2017-05-28T01:47:29.448Z,1013.36
2017-05-28T01:48:39.394Z,1013.35
2017-05-28T01:49:49.329Z,1013.29
2017-05-28T01:50:59.702Z,1013.32
2017-05-28T01:52:09.934Z,1013.27
2017-05-28T01:53:20.147Z,1013.22
2017-05-28T01:54:30.054Z,1013.22
2017-05-28T01:55:39.961Z,1013.15
2017-05-28T01:56:49.582Z,1013.1
2017-05-28T01:57:58.569Z,1013.11
2017-05-28T01:59:08.476Z,1013.06
2017-05-28T02:00:18.696Z,1013.05
2017-05-28T02:01:28.309Z,1013.02
2017-05-28T02:02:38.292Z,1013.03
2017-05-28T02:03:47.598Z,1013.09
2017-05-28T02:04:57.192Z,1013.14
2017-05-28T02:06:06.493Z,1013.18
2017-05-28T02:07:15.491Z,1013.26
2017-05-28T02:08:25.250Z,1013.28
2017-05-28T02:09:35.473Z,1013.27
2017-05-28T02:10:44.774Z,1013.29
2017-05-28T02:11:54.668Z,1013.29
2017-05-28T02:13:04.278Z,1013.29
2017-05-28T02:14:14.707Z,1013.28
2017-05-28T02:15:24.016Z,1013.32
2017-05-28T02:16:33.937Z,1013.24
2017-05-28T02:17:43.852Z,1013.26
2017-05-28T02:18:53.452Z,1013.23
2017-05-28T02:20:03.459Z,1013.2
2017-05-28T02:21:13.365Z,1013.18
2017-05-28T02:22:23.276Z,1013.21
2017-05-28T02:23:33.487Z,1013.14
2017-05-28T02:24:43.707Z,1013.16
2017-05-28T02:25:53.686Z,1013.11
2017-05-28T02:27:03.667Z,1013.14
2017-05-28T02:28:13.566Z,1013.13
2017-05-28T02:29:23.176Z,1013.12
2017-05-28T02:30:32.793Z,1013.14
2017-05-28T02:31:42.716Z,1013.14
2017-05-28T02:32:52.923Z,1013.17
2017-05-28T02:34:03.152Z,1013.2
2017-05-28T02:35:12.440Z,1013.17
2017-05-28T02:36:22.353Z,1013.17
2017-05-28T02:37:32.413Z,1013.16
2017-05-28T02:38:42.326Z,1013.14
2017-05-28T02:39:52.257Z,1013.08
2017-05-28T02:41:02.471Z,1013.08
2017-05-28T02:42:12.372Z,1013.09
2017-05-28T02:43:22.908Z,1013.08
2017-05-28T02:44:32.815Z,1013.12
2017-05-28T02:45:43.031Z,1013.12
2017-05-28T02:46:52.642Z,1013.11
2017-05-28T02:48:02.567Z,1013.14
2017-05-28T02:49:12.584Z,1013.1
2017-05-28T02:50:22.186Z,1013.12
2017-05-28T02:51:32.096Z,1013.17
2017-05-28T02:52:42.024Z,1013.11
2017-05-28T02:53:52.237Z,1013.12
2017-05-28T02:55:02.303Z,1013.13
2017-05-28T02:56:12.518Z,1013.15
2017-05-28T02:57:22.427Z,1013.17
2017-05-28T02:58:32.034Z,1013.17
2017-05-28T02:59:42.256Z,1013.14
2017-05-28T03:00:52.587Z,1013.13
2017-05-28T03:02:02.186Z,1013.19
2017-05-28T03:03:11.489Z,1013.18
2017-05-28T03:04:21.402Z,1013.21
2017-05-28T03:05:31.319Z,1013.2
2017-05-28T03:06:41.077Z,1013.27
2017-05-28T03:07:50.692Z,1013.29
2017-05-28T03:09:00.904Z,1013.26
2017-05-28T03:10:10.518Z,1013.28
2017-05-28T03:11:19.511Z,1013.27
2017-05-28T03:12:29.881Z,1013.24
2017-05-28T03:13:39.786Z,1013.25
2017-05-28T03:14:49.754Z,1013.26
2017-05-28T03:15:59.971Z,1013.24
2017-05-28T03:17:09.564Z,1013.2
2017-05-28T03:18:19.925Z,1013.22
2017-05-28T03:19:30.200Z,1013.23
2017-05-28T03:20:39.803Z,1013.25
2017-05-28T03:21:50.032Z,1013.28
2017-05-28T03:23:00.260Z,1013.31
2017-05-28T03:24:10.572Z,1013.31
2017-05-28T03:25:20.484Z,1013.28
2017-05-28T03:26:30.701Z,1013.34
2017-05-28T03:27:40.918Z,1013.39
2017-05-28T03:28:50.535Z,1013.38
2017-05-28T03:30:00.588Z,1013.39
2017-05-28T03:31:09.916Z,1013.43
2017-05-28T03:32:20.129Z,1013.43
2017-05-28T03:33:30.342Z,1013.47
2017-05-28T03:34:40.568Z,1013.47
2017-05-28T03:35:50.324Z,1013.47
2017-05-28T03:37:00.250Z,1013.47
2017-05-28T03:38:10.469Z,1013.45
2017-05-28T03:39:20.066Z,1013.49
2017-05-28T03:40:29.968Z,1013.47
2017-05-28T03:41:39.885Z,1013.43
2017-05-28T03:42:49.498Z,1013.44
2017-05-28T03:44:00.088Z,1013.41
2017-05-28T03:45:09.705Z,1013.34
2017-05-28T03:46:19.943Z,1013.4
2017-05-28T03:47:29.847Z,1013.41
2017-05-28T03:48:39.750Z,1013.46
2017-05-28T03:49:49.975Z,1013.45
2017-05-28T03:50:59.586Z,1013.47
2017-05-28T03:52:09.502Z,1013.47
2017-05-28T03:53:19.519Z,1013.46
2017-05-28T03:54:29.447Z,1013.42
2017-05-28T03:55:39.061Z,1013.39
2017-05-28T03:56:48.676Z,1013.39
2017-05-28T03:57:58.882Z,1013.43
2017-05-28T03:59:08.640Z,1013.43
2017-05-28T04:00:18.229Z,1013.49
2017-05-28T04:01:28.140Z,1013.47
2017-05-28T04:02:37.749Z,1013.55
2017-05-28T04:03:47.671Z,1013.54
2017-05-28T04:04:57.133Z,1013.56
2017-05-28T04:06:07.366Z,1013.61
2017-05-28T04:07:17.657Z,1013.69
2017-05-28T04:08:27.263Z,1013.73
2017-05-28T04:09:37.488Z,1013.73
2017-05-28T04:10:47.878Z,1013.7
2017-05-28T04:11:57.488Z,1013.65
2017-05-28T04:13:07.090Z,1013.64
2017-05-28T04:14:17.365Z,1013.69
2017-05-28T04:15:27.588Z,1013.68
2017-05-28T04:16:37.857Z,1013.71
2017-05-28T04:17:47.767Z,1013.69
2017-05-28T04:18:57.064Z,1013.71
2017-05-28T04:20:06.992Z,1013.69
2017-05-28T04:21:17.206Z,1013.72
2017-05-28T04:22:26.955Z,1013.75
2017-05-28T04:23:37.180Z,1013.77
2017-05-28T04:24:47.390Z,1013.8
2017-05-28T04:25:57.615Z,1013.85
2017-05-28T04:27:07.530Z,1013.89
2017-05-28T04:28:17.480Z,1013.92
2017-05-28T04:29:27.384Z,1013.94
2017-05-28T04:30:36.990Z,1014
2017-05-28T04:31:47.208Z,1014.02
2017-05-28T04:32:56.822Z,1014.02
2017-05-28T04:34:07.086Z,1014.06
2017-05-28T04:35:17.294Z,1014.04
2017-05-28T04:36:27.516Z,1014.08
2017-05-28T04:37:37.129Z,1014.07
2017-05-28T04:38:47.350Z,1014.04
2017-05-28T04:39:57.053Z,1014
2017-05-28T04:41:07.266Z,1014.01
2017-05-28T04:42:17.175Z,1014
2017-05-28T04:43:27.396Z,1014.01
2017-05-28T04:44:37.621Z,1014
2017-05-28T04:45:47.533Z,1013.94
2017-05-28T04:46:57.443Z,1013.9
2017-05-28T04:48:07.059Z,1013.91
2017-05-28T04:49:16.673Z,1013.83
2017-05-28T04:50:26.267Z,1013.86
2017-05-28T04:51:36.164Z,1013.86
2017-05-28T04:52:46.073Z,1013.86
2017-05-28T04:53:56.004Z,1013.83
2017-05-28T04:55:06.223Z,1013.76
2017-05-28T04:56:16.435Z,1013.73
2017-05-28T04:57:26.234Z,1013.77
2017-05-28T04:58:36.151Z,1013.76
2017-05-28T04:59:45.451Z,1013.8
2017-05-28T05:03:27.416Z,1013.8
2017-05-28T05:04:37.046Z,1013.84
2017-05-28T05:05:46.968Z,1013.85
2017-05-28T05:06:56.557Z,1013.85
2017-05-28T05:08:06.485Z,1013.83
2017-05-28T05:09:16.399Z,1013.87
2017-05-28T05:10:26.309Z,1013.86
2017-05-28T05:11:36.214Z,1013.88
2017-05-28T05:12:46.448Z,1013.88
2017-05-28T05:13:56.071Z,1013.91
2017-05-28T05:15:06.154Z,1013.87
2017-05-28T05:16:16.392Z,1013.87
2017-05-28T05:17:26.302Z,1013.88
2017-05-28T05:18:36.216Z,1013.85
2017-05-28T05:19:45.810Z,1013.91
2017-05-28T05:20:55.886Z,1013.95
2017-05-28T05:22:05.184Z,1013.96
2017-05-28T05:23:15.085Z,1013.98
2017-05-28T05:24:24.698Z,1013.99
2017-05-28T05:25:34.628Z,1014.01
2017-05-28T05:26:44.990Z,1014.08
2017-05-28T05:27:54.287Z,1014.1
2017-05-28T05:29:04.201Z,1014.1
2017-05-28T05:30:14.423Z,1014.15
2017-05-28T05:31:23.748Z,1014.15
2017-05-28T05:32:33.423Z,1014.14
2017-05-28T05:33:43.344Z,1014.17
2017-05-28T05:34:53.264Z,1014.23
2017-05-28T05:36:03.480Z,1014.26
2017-05-28T05:37:12.762Z,1014.27
2017-05-28T05:38:22.661Z,1014.28
2017-05-28T05:39:32.881Z,1014.29
2017-05-28T05:40:43.100Z,1014.27
2017-05-28T05:41:53.009Z,1014.26
2017-05-28T05:43:02.613Z,1014.27
2017-05-28T05:44:12.377Z,1014.25
2017-05-28T05:45:21.971Z,1014.3
2017-05-28T05:46:31.877Z,1014.32
2017-05-28T05:47:41.781Z,1014.27
2017-05-28T05:48:51.385Z,1014.29
2017-05-28T05:50:02.006Z,1014.26
2017-05-28T05:51:12.077Z,1014.26
2017-05-28T05:52:22.294Z,1014.24
2017-05-28T05:53:31.898Z,1014.24
2017-05-28T05:54:41.812Z,1014.26
2017-05-28T05:55:51.511Z,1014.25
2017-05-28T05:57:01.121Z,1014.3
2017-05-28T05:58:10.718Z,1014.31
2017-05-28T05:59:20.630Z,1014.31
2017-05-28T06:00:30.230Z,1014.35
2017-05-28T06:01:40.126Z,1014.32
2017-05-28T06:02:49.731Z,1014.33
2017-05-28T06:03:59.332Z,1014.36
2017-05-28T06:05:09.247Z,1014.35
2017-05-28T06:06:19.480Z,1014.37
2017-05-28T06:07:29.373Z,1014.35
2017-05-28T06:08:38.972Z,1014.31
2017-05-28T06:09:48.892Z,1014.28
2017-05-28T06:10:58.811Z,1014.29
2017-05-28T06:12:08.414Z,1014.35
2017-05-28T06:13:18.325Z,1014.33
2017-05-28T06:14:28.560Z,1014.37
2017-05-28T06:15:38.785Z,1014.33
2017-05-28T06:16:48.710Z,1014.28
2017-05-28T06:17:59.026Z,1014.34
2017-05-28T06:19:08.633Z,1014.34
2017-05-28T06:20:18.284Z,1014.38
2017-05-28T06:21:28.498Z,1014.35
2017-05-28T06:22:38.397Z,1014.37
2017-05-28T06:23:48.409Z,1014.34
2017-05-28T06:24:58.621Z,1014.26
2017-05-28T06:26:08.217Z,1014.31
2017-05-28T06:27:17.801Z,1014.31
2017-05-28T06:28:27.718Z,1014.28
2017-05-28T06:29:37.770Z,1014.3
2017-05-28T06:30:47.975Z,1014.3
2017-05-28T06:31:57.568Z,1014.3
2017-05-28T06:33:07.174Z,1014.3
2017-05-28T06:34:17.079Z,1014.33
2017-05-28T06:35:27.436Z,1014.3
2017-05-28T06:36:37.646Z,1014.3
2017-05-28T06:37:47.543Z,1014.24
2017-05-28T06:38:57.488Z,1014.17
2017-05-28T06:40:07.082Z,1014.17
2017-05-28T06:41:16.983Z,1014.14
2017-05-28T06:42:26.586Z,1014.13
2017-05-28T06:43:36.800Z,1014.08
2017-05-28T06:44:46.412Z,1014.12
2017-05-28T06:45:56.013Z,1014.1
2017-05-28T06:47:05.987Z,1014.11
2017-05-28T06:48:15.589Z,1014.13
2017-05-28T06:49:25.840Z,1014.1
2017-05-28T06:50:36.077Z,1014.11
2017-05-28T06:51:46.012Z,1014.11
2017-05-28T06:52:55.915Z,1014.12
2017-05-28T06:54:06.129Z,1014.21
2017-05-28T06:55:15.734Z,1014.23
2017-05-28T06:56:25.966Z,1014.22
2017-05-28T06:57:35.564Z,1014.29
2017-05-28T06:58:45.515Z,1014.2
2017-05-28T06:59:54.814Z,1014.15
2017-05-28T07:01:04.427Z,1014.16
2017-05-28T07:02:14.028Z,1014.13
2017-05-28T07:03:23.956Z,1014.14
2017-05-28T07:04:33.921Z,1014.14
2017-05-28T07:05:43.878Z,1014.12
2017-05-28T07:06:53.821Z,1014.13
2017-05-28T07:08:03.739Z,1014.17
2017-05-28T07:09:13.028Z,1014.19
2017-05-28T07:10:23.391Z,1014.13
2017-05-28T07:11:33.300Z,1014.12
2017-05-28T07:12:43.208Z,1014.09
2017-05-28T07:13:53.106Z,1014.02
2017-05-28T07:15:03.320Z,1013.97
2017-05-28T07:16:13.271Z,1013.98
2017-05-28T07:17:23.255Z,1013.98
2017-05-28T07:18:32.862Z,1013.97
2017-05-28T07:19:42.470Z,1013.95
2017-05-28T07:20:52.702Z,1013.96
2017-05-28T07:22:02.324Z,1013.97
2017-05-28T07:23:11.929Z,1013.98
2017-05-28T07:24:21.845Z,1013.98
2017-05-28T07:25:31.758Z,1013.99
2017-05-28T07:26:41.974Z,1013.96
2017-05-28T07:27:52.228Z,1013.96
2017-05-28T07:29:01.522Z,1013.92
2017-05-28T07:30:11.448Z,1013.9
2017-05-28T07:31:21.370Z,1013.94
2017-05-28T07:32:31.604Z,1013.95
2017-05-28T07:33:41.628Z,1013.94
2017-05-28T07:34:51.234Z,1013.91
2017-05-28T07:36:01.153Z,1013.89
2017-05-28T07:37:11.103Z,1013.86
2017-05-28T07:38:21.034Z,1013.85
2017-05-28T07:39:30.958Z,1013.82
2017-05-28T07:40:40.571Z,1013.8
2017-05-28T07:41:49.572Z,1013.85
2017-05-28T07:42:59.181Z,1013.82
2017-05-28T07:44:09.103Z,1013.86
2017-05-28T07:45:19.009Z,1013.86
2017-05-28T07:46:28.965Z,1013.93
2017-05-28T07:47:38.866Z,1013.89
2017-05-28T07:48:48.787Z,1013.88
2017-05-28T07:49:58.094Z,1013.93
2017-05-28T07:51:07.531Z,1013.91
2017-05-28T07:52:17.129Z,1013.94
2017-05-28T07:53:26.740Z,1013.99
2017-05-28T07:54:36.662Z,1014.07
2017-05-28T07:55:46.878Z,1014.09
2017-05-28T07:56:57.128Z,1014.13
2017-05-28T07:58:06.722Z,1014.09
2017-05-28T07:59:16.642Z,1014.05
2017-05-28T08:00:26.284Z,1014.01
2017-05-28T08:01:36.191Z,1014.04
2017-05-28T08:02:46.249Z,1014.04
2017-05-28T08:03:55.562Z,1014.11
2017-05-28T08:05:05.795Z,1014.17
2017-05-28T08:06:16.229Z,1014.19
2017-05-28T08:07:26.446Z,1014.16
2017-05-28T08:08:36.363Z,1014.18
2017-05-28T08:09:47.397Z,1014.19
2017-05-28T08:10:57.369Z,1014.19
2017-05-28T08:12:06.972Z,1014.21
2017-05-28T08:13:16.587Z,1014.24
2017-05-28T08:14:27.446Z,1014.27
2017-05-28T08:15:37.406Z,1014.33
2017-05-28T08:16:47.644Z,1014.31
2017-05-28T08:17:57.548Z,1014.36
2017-05-28T08:19:07.457Z,1014.41
2017-05-28T08:20:17.108Z,1014.49
2017-05-28T08:21:26.713Z,1014.48
2017-05-28T08:22:36.942Z,1014.48
2017-05-28T08:23:46.843Z,1014.38
2017-05-28T08:24:56.756Z,1014.37
2017-05-28T08:26:06.453Z,1014.36
2017-05-28T08:27:16.063Z,1014.34
2017-05-28T08:28:25.625Z,1014.34
2017-05-28T08:29:35.843Z,1014.31
2017-05-28T08:30:45.765Z,1014.3
2017-05-28T08:31:55.789Z,1014.39
2017-05-28T08:33:05.687Z,1014.43
2017-05-28T08:34:15.302Z,1014.49
2017-05-28T08:35:24.607Z,1014.53
2017-05-28T08:36:34.913Z,1014.56
2017-05-28T08:37:44.999Z,1014.55
2017-05-28T08:38:55.280Z,1014.59
2017-05-28T08:40:05.189Z,1014.57
2017-05-28T08:41:14.486Z,1014.52
2017-05-28T08:42:24.714Z,1014.57
2017-05-28T08:43:35.332Z,1014.53
2017-05-28T08:44:44.637Z,1014.59
2017-05-28T08:45:54.251Z,1014.66
2017-05-28T08:47:03.859Z,1014.61
2017-05-28T08:48:13.772Z,1014.66
2017-05-28T08:49:23.788Z,1014.66
2017-05-28T08:50:33.249Z,1014.62
2017-05-28T08:51:42.846Z,1014.58
2017-05-28T08:52:53.080Z,1014.54
2017-05-28T08:54:03.019Z,1014.48
2017-05-28T08:55:13.269Z,1014.48
2017-05-28T08:56:23.209Z,1014.5
2017-05-28T08:57:33.127Z,1014.53
2017-05-28T08:58:43.064Z,1014.56
2017-05-28T08:59:53.204Z,1014.58
2017-05-28T09:01:03.567Z,1014.63
2017-05-28T09:02:13.337Z,1014.58
2017-05-28T09:03:23.257Z,1014.54
2017-05-28T09:04:32.866Z,1014.56
2017-05-28T09:05:42.465Z,1014.57
2017-05-28T09:06:52.681Z,1014.57
2017-05-28T09:08:02.599Z,1014.59
2017-05-28T09:09:12.509Z,1014.71
2017-05-28T09:10:22.738Z,1014.78
2017-05-28T09:11:32.645Z,1014.85
2017-05-28T09:12:42.873Z,1014.89
2017-05-28T09:13:53.118Z,1014.9
2017-05-28T09:15:03.032Z,1014.86
2017-05-28T09:16:12.988Z,1014.84
2017-05-28T09:17:22.909Z,1014.77
2017-05-28T09:18:32.840Z,1014.75
2017-05-28T09:19:42.535Z,1014.74
2017-05-28T09:20:52.459Z,1014.72
2017-05-28T09:22:02.364Z,1014.66
2017-05-28T09:23:11.645Z,1014.61
2017-05-28T09:24:22.037Z,1014.59
2017-05-28T09:25:31.414Z,1014.47
2017-05-28T09:26:41.251Z,1014.3
2017-05-28T09:27:52.293Z,1014.19
2017-05-28T09:29:02.207Z,1014.08
2017-05-28T09:30:12.570Z,1014.04
2017-05-28T09:31:22.171Z,1014.05
2017-05-28T09:32:32.415Z,1014.05
2017-05-28T09:33:42.336Z,1014.03
2017-05-28T09:34:51.962Z,1014.11
2017-05-28T09:36:02.338Z,1014.13
2017-05-28T09:37:12.429Z,1014.18
2017-05-28T09:38:21.419Z,1014.2
2017-05-28T09:39:31.326Z,1014.2
2017-05-28T09:40:41.670Z,1014.23
2017-05-28T09:41:52.031Z,1014.3
2017-05-28T09:43:01.936Z,1014.39
2017-05-28T09:44:12.146Z,1014.5
2017-05-28T09:45:22.057Z,1014.56
2017-05-28T09:46:31.975Z,1014.55
2017-05-28T09:47:41.424Z,1014.52
2017-05-28T09:48:51.351Z,1014.42
2017-05-28T09:50:01.254Z,1014.39
2017-05-28T09:51:11.456Z,1014.33
2017-05-28T09:52:21.360Z,1014.38
2017-05-28T09:53:30.987Z,1014.38
2017-05-28T09:54:40.892Z,1014.44
2017-05-28T09:55:51.123Z,1014.44
2017-05-28T09:57:01.035Z,1014.48
2017-05-28T09:58:10.649Z,1014.52
2017-05-28T09:59:20.269Z,1014.52
2017-05-28T10:00:30.479Z,1014.56
2017-05-28T10:01:40.386Z,1014.55
2017-05-28T10:02:50.303Z,1014.56
2017-05-28T10:03:59.905Z,1014.56
2017-05-28T10:05:09.887Z,1014.51
2017-05-28T10:06:20.097Z,1014.5
2017-05-28T10:07:29.699Z,1014.54
2017-05-28T10:08:39.614Z,1014.49
2017-05-28T10:09:49.220Z,1014.46
2017-05-28T10:10:59.329Z,1014.53
2017-05-28T10:12:09.238Z,1014.55
2017-05-28T10:13:19.159Z,1014.52
2017-05-28T10:14:29.062Z,1014.57
2017-05-28T10:15:39.003Z,1014.55
2017-05-28T10:16:48.626Z,1014.59
2017-05-28T10:17:58.217Z,1014.58
2017-05-28T10:19:07.529Z,1014.55
2017-05-28T10:20:17.428Z,1014.63
2017-05-28T10:21:27.339Z,1014.6
2017-05-28T10:22:37.565Z,1014.6
2017-05-28T10:23:47.789Z,1014.53
2017-05-28T10:24:57.709Z,1014.57
2017-05-28T10:26:07.609Z,1014.54
2017-05-28T10:27:17.216Z,1014.53
2017-05-28T10:28:26.970Z,1014.52
2017-05-28T10:29:37.188Z,1014.53
2017-05-28T10:30:46.486Z,1014.49
2017-05-28T10:31:56.083Z,1014.43
2017-05-28T10:33:05.397Z,1014.4
2017-05-28T10:34:15.307Z,1014.41
2017-05-28T10:35:24.606Z,1014.4
2017-05-28T10:36:33.908Z,1014.42
2017-05-28T10:37:44.122Z,1014.37
2017-05-28T10:38:54.036Z,1014.38
2017-05-28T10:40:04.108Z,1014.39
2017-05-28T10:41:14.018Z,1014.35
2017-05-28T10:42:23.635Z,1014.3
2017-05-28T10:43:33.838Z,1014.28
2017-05-28T10:44:43.758Z,1014.25
2017-05-28T10:45:53.976Z,1014.24
2017-05-28T10:47:03.273Z,1014.2
2017-05-28T10:48:13.245Z,1014.19
2017-05-28T10:49:23.871Z,1014.12
2017-05-28T10:50:33.666Z,1014.16
2017-05-28T10:51:43.770Z,1014.13
2017-05-28T10:52:53.685Z,1014.12
2017-05-28T10:54:03.601Z,1014.13
2017-05-28T10:55:13.503Z,1014.13
2017-05-28T10:56:23.433Z,1014.16
2017-05-28T10:57:33.764Z,1014.08
2017-05-28T10:58:43.692Z,1014.1
2017-05-28T10:59:53.293Z,1014.04
2017-05-28T11:01:02.926Z,1014.02
2017-05-28T11:02:12.520Z,1014.03
2017-05-28T11:03:21.917Z,1014
2017-05-28T11:04:32.159Z,1013.96
2017-05-28T11:05:42.070Z,1013.93
2017-05-28T11:06:51.671Z,1013.94
2017-05-28T11:08:01.294Z,1013.93
2017-05-28T11:09:11.303Z,1013.94
2017-05-28T11:10:21.217Z,1013.94
2017-05-28T11:11:31.430Z,1013.96
2017-05-28T11:12:41.342Z,1013.92
2017-05-28T11:13:51.256Z,1013.91
2017-05-28T11:15:01.230Z,1013.88
2017-05-28T11:16:10.836Z,1013.84
2017-05-28T11:17:21.055Z,1013.79
2017-05-28T11:18:30.362Z,1013.78
2017-05-28T11:19:40.618Z,1013.74
2017-05-28T11:20:50.951Z,1013.73
2017-05-28T11:22:00.562Z,1013.69
2017-05-28T11:23:10.484Z,1013.66
2017-05-28T11:24:20.741Z,1013.64
2017-05-28T11:25:30.955Z,1013.66
2017-05-28T11:26:41.217Z,1013.62
2017-05-28T11:27:50.523Z,1013.63
2017-05-28T11:29:00.439Z,1013.56
2017-05-28T11:30:09.739Z,1013.58
2017-05-28T11:31:19.653Z,1013.6
2017-05-28T11:32:29.619Z,1013.57
2017-05-28T11:33:39.524Z,1013.6
2017-05-28T11:34:49.128Z,1013.55
2017-05-28T11:35:59.035Z,1013.52
2017-05-28T11:37:08.639Z,1013.53
2017-05-28T11:38:18.554Z,1013.56
2017-05-28T11:39:28.160Z,1013.58
2017-05-28T11:40:37.780Z,1013.56
2017-05-28T11:41:47.740Z,1013.59
2017-05-28T11:42:57.653Z,1013.57
2017-05-28T11:44:07.705Z,1013.55
2017-05-28T11:45:17.626Z,1013.57
2017-05-28T11:46:27.216Z,1013.47
2017-05-28T11:47:36.813Z,1013.51
2017-05-28T11:48:47.031Z,1013.53
2017-05-28T11:49:57.091Z,1013.49
2017-05-28T11:51:07.000Z,1013.5
2017-05-28T11:52:16.608Z,1013.49
2017-05-28T11:53:26.214Z,1013.46
2017-05-28T11:54:36.423Z,1013.46
2017-05-28T11:55:46.789Z,1013.44
2017-05-28T11:56:57.368Z,1013.43
2017-05-28T11:58:07.597Z,1013.41
2017-05-28T11:59:16.898Z,1013.4
2017-05-28T12:00:27.119Z,1013.44
2017-05-28T12:01:36.872Z,1013.4
2017-05-28T12:02:47.093Z,1013.43
2017-05-28T12:03:57.010Z,1013.38
2017-05-28T12:05:06.618Z,1013.41
2017-05-28T12:06:16.230Z,1013.39
2017-05-28T12:07:26.515Z,1013.34
2017-05-28T12:08:36.115Z,1013.28
2017-05-28T12:09:46.034Z,1013.26
2017-05-28T12:10:56.276Z,1013.24
2017-05-28T12:12:06.195Z,1013.26
2017-05-28T12:13:16.145Z,1013.25
2017-05-28T12:14:26.052Z,1013.26
2017-05-28T12:15:35.658Z,1013.24
2017-05-28T12:16:45.889Z,1013.21
2017-05-28T12:17:55.835Z,1013.17
2017-05-28T12:19:06.104Z,1013.13
2017-05-28T12:20:15.731Z,1013.17
2017-05-28T12:21:25.023Z,1013.14
2017-05-28T12:22:34.626Z,1013.16
2017-05-28T12:23:44.234Z,1013.19
2017-05-28T12:24:54.137Z,1013.13
2017-05-28T12:26:03.749Z,1013.1
2017-05-28T12:27:13.667Z,1013.11
2017-05-28T12:28:23.592Z,1013.14
2017-05-28T12:29:33.226Z,1013.14
2017-05-28T12:30:43.020Z,1013.14
2017-05-28T12:31:52.946Z,1013.15
2017-05-28T12:33:02.936Z,1013.13
2017-05-28T12:34:12.240Z,1013.18
2017-05-28T12:35:21.240Z,1013.15
2017-05-28T12:36:30.715Z,1013.13
2017-05-28T12:37:40.321Z,1013.13
2017-05-28T12:38:50.242Z,1013.11
2017-05-28T12:40:00.169Z,1013.06
2017-05-28T12:41:10.096Z,1013.06
2017-05-28T12:42:20.351Z,1013.04
2017-05-28T12:43:30.571Z,1013.02
2017-05-28T12:44:40.191Z,1013.05
2017-05-28T12:45:50.109Z,1013.05
2017-05-28T12:46:59.731Z,1013.07
2017-05-28T12:48:09.665Z,1013.05
2017-05-28T12:49:19.893Z,1013.04
2017-05-28T12:50:30.132Z,1013.04
2017-05-28T12:51:40.354Z,1012.97
2017-05-28T12:52:50.286Z,1012.97
2017-05-28T12:54:00.233Z,1012.94
2017-05-28T12:55:10.147Z,1012.91
2017-05-28T12:56:20.058Z,1012.89
2017-05-28T12:57:29.462Z,1012.85
2017-05-28T12:58:38.770Z,1012.88
2017-05-28T12:59:49.143Z,1012.84
2017-05-28T13:00:59.067Z,1012.85
2017-05-28T13:02:08.974Z,1012.86
2017-05-28T13:03:18.581Z,1012.89
2017-05-28T13:04:27.579Z,1012.85
2017-05-28T13:05:37.644Z,1012.82
2017-05-28T13:06:47.318Z,1012.8
2017-05-28T13:07:56.948Z,1012.78
2017-05-28T13:09:06.869Z,1012.74
2017-05-28T13:10:16.498Z,1012.73
2017-05-28T13:11:26.136Z,1012.74
2017-05-28T13:12:36.042Z,1012.73
2017-05-28T13:13:45.664Z,1012.71
2017-05-28T13:14:55.587Z,1012.73
2017-05-28T13:16:05.504Z,1012.7
2017-05-28T13:17:15.278Z,1012.69
2017-05-28T13:18:25.264Z,1012.7
2017-05-28T13:19:35.293Z,1012.69
2017-05-28T13:20:46.318Z,1012.69
2017-05-28T13:21:56.370Z,1012.67
2017-05-28T13:23:06.229Z,1012.63
2017-05-28T13:24:15.579Z,1012.62
2017-05-28T13:25:25.608Z,1012.59
2017-05-28T13:26:35.030Z,1012.6
2017-05-28T13:27:45.237Z,1012.52
2017-05-28T13:28:55.200Z,1012.6
2017-05-28T13:30:06.003Z,1012.58
2017-05-28T13:31:15.955Z,1012.62
2017-05-28T13:32:25.898Z,1012.6
2017-05-28T13:33:36.233Z,1012.61
2017-05-28T13:34:45.973Z,1012.58
2017-05-28T13:35:55.435Z,1012.56
2017-05-28T13:37:05.046Z,1012.53
2017-05-28T13:38:15.003Z,1012.53
2017-05-28T13:39:24.656Z,1012.49
2017-05-28T13:40:34.744Z,1012.51
2017-05-28T13:41:44.969Z,1012.47
2017-05-28T13:42:55.221Z,1012.46
2017-05-28T13:44:04.916Z,1012.47
2017-05-28T13:45:14.616Z,1012.41
2017-05-28T13:46:25.023Z,1012.37
2017-05-28T13:47:35.076Z,1012.36
2017-05-28T13:48:44.988Z,1012.33
2017-05-28T13:49:54.292Z,1012.38
2017-05-28T13:51:04.729Z,1012.4
2017-05-28T13:52:14.824Z,1012.41
2017-05-28T13:53:25.244Z,1012.44
2017-05-28T13:54:35.424Z,1012.4
2017-05-28T13:55:45.381Z,1012.42
2017-05-28T13:56:54.694Z,1012.47
2017-05-28T13:58:04.984Z,1012.42
2017-05-28T13:59:14.604Z,1012.47
2017-05-28T14:00:24.988Z,1012.47
2017-05-28T14:01:34.915Z,1012.44
2017-05-28T14:02:44.528Z,1012.48
2017-05-28T14:03:54.860Z,1012.46
2017-05-28T14:05:05.549Z,1012.49
2017-05-28T14:06:15.467Z,1012.47
2017-05-28T14:07:25.682Z,1012.5
2017-05-28T14:08:35.606Z,1012.42
2017-05-28T14:09:45.897Z,1012.44
2017-05-28T14:10:55.221Z,1012.43